Time;durP1;ratioP1;P1;durP2;ratioP2;P2;SDS_P1;SDS_P2;PMS_P1;PMS_P2;Temp;Humidity;BMP_temperature;BMP_pressure;BME280_temperature;BME280_humidity;BME280_pressure;Samples;Min_cycle;Max_cycle;Signal;HPM_P1;HPM_P2
2022/04/04 00:00:05;;;;;;;9.13;6.27;;;0.60;99.90;;;;;;5049763;28;20288;-69
2022/04/04 00:02:32;;;;;;;7.93;5.87;;;0.60;99.90;;;;;;5049886;28;20567;-69
2022/04/04 00:04:59;;;;;;;8.30;5.87;;;0.60;99.90;;;;;;5049474;28;20312;-69
2022/04/04 00:07:26;;;;;;;8.27;5.47;;;0.60;99.90;;;;;;5049830;28;20683;-70
2022/04/04 00:09:52;;;;;;;10.80;6.23;;;0.60;99.90;;;;;;5049834;28;20611;-68
2022/04/04 00:12:20;;;;;;;8.30;5.90;;;0.60;99.90;;;;;;5049594;28;20259;-68
2022/04/04 00:14:49;;;;;;;7.67;5.47;;;0.50;99.90;;;;;;5049522;28;20289;-69
2022/04/04 00:17:16;;;;;;;8.90;6.10;;;0.50;99.90;;;;;;5049533;28;20670;-68
2022/04/04 00:19:43;;;;;;;7.77;5.57;;;0.50;99.90;;;;;;5049399;28;20240;-68
2022/04/04 00:22:09;;;;;;;8.10;5.50;;;0.50;99.90;;;;;;5049620;28;20679;-68
2022/04/04 00:24:36;;;;;;;9.10;5.83;;;0.50;99.90;;;;;;5049164;28;20320;-68
2022/04/04 00:27:04;;;;;;;9.37;6.10;;;0.50;99.90;;;;;;5049384;28;20241;-68
2022/04/04 00:29:30;;;;;;;8.37;5.83;;;0.50;99.90;;;;;;5049202;28;20252;-70
2022/04/04 00:31:59;;;;;;;9.90;6.10;;;0.50;99.90;;;;;;5049055;28;20241;-68
2022/04/04 00:34:26;;;;;;;8.00;6.00;;;0.40;99.90;;;;;;5049461;28;20237;-69
2022/04/04 00:36:53;;;;;;;9.47;6.27;;;0.40;99.90;;;;;;5049307;28;20264;-69
2022/04/04 00:39:20;;;;;;;9.03;6.17;;;0.30;99.90;;;;;;5049165;28;20291;-68
2022/04/04 00:41:47;;;;;;;9.27;5.77;;;0.30;99.90;;;;;;5049522;28;20201;-69
2022/04/04 00:44:15;;;;;;;10.87;6.23;;;0.30;99.90;;;;;;5048885;28;20222;-69
2022/04/04 00:46:43;;;;;;;9.87;5.77;;;0.30;99.90;;;;;;5049242;28;20645;-68
2022/04/04 00:49:12;;;;;;;11.40;5.93;;;0.30;99.90;;;;;;5048811;28;20293;-68
2022/04/04 00:51:39;;;;;;;10.47;6.20;;;0.30;99.90;;;;;;5048819;28;20297;-69
2022/04/04 00:54:07;;;;;;;8.57;6.17;;;0.30;99.90;;;;;;5049038;28;20660;-69
2022/04/04 00:56:35;;;;;;;10.33;6.20;;;0.30;99.90;;;;;;5048802;28;20466;-69
2022/04/04 00:59:05;;;;;;;9.97;6.07;;;0.20;99.90;;;;;;5048891;28;20209;-70
2022/04/04 01:01:32;;;;;;;9.93;5.90;;;0.20;99.90;;;;;;5048959;28;20655;-69
2022/04/04 01:03:59;;;;;;;9.97;6.43;;;0.20;99.90;;;;;;5048595;28;20316;-68
2022/04/04 01:06:27;;;;;;;8.50;5.87;;;0.20;99.90;;;;;;5049296;28;20667;-70
2022/04/04 01:08:54;;;;;;;11.60;6.63;;;0.20;99.90;;;;;;5048887;28;20248;-70
2022/04/04 01:11:21;;;;;;;10.10;6.13;;;0.20;99.90;;;;;;5051861;28;20292;-69
2022/04/04 01:13:48;;;;;;;9.90;6.00;;;0.20;99.90;;;;;;5052339;28;20232;-69
2022/04/04 01:16:15;;;;;;;11.63;6.80;;;0.10;99.90;;;;;;5052336;28;20626;-67
2022/04/04 01:18:43;;;;;;;9.50;6.43;;;0.10;99.90;;;;;;5052351;28;20232;-69
2022/04/04 01:21:10;;;;;;;10.17;6.43;;;0.10;99.90;;;;;;5051957;28;20212;-68
2022/04/04 01:23:42;;;;;;;9.37;6.07;;;0.00;99.90;;;;;;5052298;28;20702;-69
2022/04/04 01:26:13;;;;;;;10.60;6.73;;;0.00;99.90;;;;;;5052175;28;20297;-69
2022/04/04 01:28:41;;;;;;;10.37;6.97;;;0.00;99.90;;;;;;5052327;28;20190;-68
2022/04/04 01:31:08;;;;;;;11.30;6.60;;;-0.10;99.90;;;;;;5052249;28;20686;-69
2022/04/04 01:33:37;;;;;;;10.80;6.50;;;-0.10;99.90;;;;;;5051989;28;20205;-68
2022/04/04 01:36:05;;;;;;;9.77;6.37;;;-0.10;99.90;;;;;;5052114;28;20210;-69
2022/04/04 01:38:31;;;;;;;9.30;6.13;;;-0.10;99.90;;;;;;5051671;28;20281;-68
2022/04/04 01:40:58;;;;;;;11.93;6.70;;;-0.10;99.90;;;;;;5051579;28;20247;-69
2022/04/04 01:43:27;;;;;;;8.80;6.50;;;-0.10;99.90;;;;;;5051658;28;20241;-69
2022/04/04 01:48:39;;;;;;;8.10;6.30;;;-0.20;99.90;;;;;;5051881;28;20185;-69
2022/04/04 01:51:06;;;;;;;11.70;7.13;;;-0.20;99.90;;;;;;5051706;28;20233;-69
2022/04/04 01:53:33;;;;;;;11.77;6.90;;;-0.20;99.90;;;;;;5051676;28;20727;-69
2022/04/04 01:56:03;;;;;;;11.23;6.63;;;-0.20;99.90;;;;;;5051517;28;20313;-68
2022/04/04 01:58:32;;;;;;;10.00;6.97;;;-0.20;99.90;;;;;;5051799;28;20744;-68
2022/04/04 02:01:01;;;;;;;9.97;7.00;;;-0.20;99.90;;;;;;5051565;28;20248;-69
2022/04/04 02:03:29;;;;;;;10.50;6.90;;;-0.20;99.90;;;;;;5051482;28;20205;-68
2022/04/04 02:05:56;;;;;;;10.70;6.73;;;-0.30;99.90;;;;;;5051269;28;20245;-68
2022/04/04 02:08:24;;;;;;;9.80;6.77;;;-0.30;99.90;;;;;;5051361;28;20245;-68
2022/04/04 02:10:51;;;;;;;10.10;6.63;;;-0.30;99.90;;;;;;5051006;28;20288;-68
2022/04/04 02:13:17;;;;;;;10.60;7.17;;;-0.30;99.90;;;;;;5051114;28;20252;-68
2022/04/04 02:15:46;;;;;;;9.53;6.50;;;-0.30;99.90;;;;;;5050913;28;20293;-68
2022/04/04 02:18:13;;;;;;;10.80;6.40;;;-0.40;99.90;;;;;;5051164;28;20324;-68
2022/04/04 02:20:39;;;;;;;11.07;6.77;;;-0.40;99.90;;;;;;5050919;28;20252;-69
2022/04/04 02:23:06;;;;;;;11.57;6.90;;;-0.40;99.90;;;;;;5051332;28;20694;-69
2022/04/04 02:25:33;;;;;;;10.20;7.00;;;-0.40;99.90;;;;;;5051090;28;20311;-67
2022/04/04 02:28:00;;;;;;;10.63;6.47;;;-0.40;99.90;;;;;;5051097;28;20259;-69
2022/04/04 02:30:27;;;;;;;13.80;6.53;;;-0.40;99.90;;;;;;5051055;28;20272;-69
2022/04/04 02:32:55;;;;;;;10.30;7.07;;;-0.40;99.90;;;;;;5050841;28;20248;-71
2022/04/04 02:35:22;;;;;;;11.17;6.83;;;-0.50;99.90;;;;;;5051170;28;20240;-69
2022/04/04 02:37:49;;;;;;;9.40;6.53;;;-0.50;99.90;;;;;;5050610;28;20277;-69
2022/04/04 02:40:16;;;;;;;12.10;7.40;;;-0.50;99.90;;;;;;5051113;28;20682;-69
2022/04/04 02:42:43;;;;;;;12.67;7.50;;;-0.50;99.90;;;;;;5050991;28;20288;-69
2022/04/04 02:45:10;;;;;;;11.17;7.23;;;-0.50;99.90;;;;;;5050899;28;20266;-67
2022/04/04 02:47:37;;;;;;;13.03;7.47;;;-0.60;99.90;;;;;;5050839;28;20731;-68
2022/04/04 02:50:07;;;;;;;10.37;6.70;;;-0.60;99.90;;;;;;5050580;28;20238;-69
2022/04/04 02:52:34;;;;;;;10.70;6.60;;;-0.60;99.90;;;;;;5050330;28;20254;-68
2022/04/04 02:56:28;;;;;;;13.90;7.50;;;-0.70;99.90;;;;;;5050633;28;20293;-69
2022/04/04 02:57:47;;;;;;;11.37;7.43;;;-0.60;99.90;;;;;;5050496;28;20194;-68
2022/04/04 03:00:15;;;;;;;12.23;7.40;;;-0.70;99.90;;;;;;5050864;28;20213;-67
2022/04/04 03:02:42;;;;;;;10.73;7.20;;;-0.70;99.90;;;;;;5050780;28;20210;-68
2022/04/04 03:05:11;;;;;;;11.70;6.97;;;-0.70;99.90;;;;;;5050364;28;20316;-69
2022/04/04 03:07:38;;;;;;;12.30;7.33;;;-0.70;99.90;;;;;;5050701;28;20630;-70
2022/04/04 03:10:05;;;;;;;12.47;7.53;;;-0.80;99.90;;;;;;5050914;28;20750;-69
2022/04/04 03:12:32;;;;;;;12.30;7.43;;;-0.70;99.90;;;;;;5050696;28;20244;-68
2022/04/04 03:14:59;;;;;;;11.13;7.23;;;-0.70;99.90;;;;;;5050627;28;20236;-68
2022/04/04 03:17:26;;;;;;;12.93;7.50;;;-0.80;99.90;;;;;;5050846;28;20308;-69
2022/04/04 03:19:53;;;;;;;10.33;7.50;;;-0.80;99.90;;;;;;5050156;28;20300;-68
2022/04/04 03:22:21;;;;;;;12.23;7.17;;;-0.80;99.90;;;;;;5050468;28;20634;-69
2022/04/04 03:24:48;;;;;;;10.67;7.63;;;-0.80;99.90;;;;;;5049865;28;20260;-69
2022/04/04 03:27:15;;;;;;;12.13;7.60;;;-0.80;99.90;;;;;;5050284;28;20240;-69
2022/04/04 03:29:44;;;;;;;11.93;7.87;;;-0.80;99.90;;;;;;5050364;28;20683;-69
2022/04/04 03:32:12;;;;;;;13.07;8.03;;;-0.80;99.90;;;;;;5050142;28;20498;-69
2022/04/04 03:34:39;;;;;;;13.30;7.20;;;-0.80;99.90;;;;;;5050130;28;20241;-69
2022/04/04 03:37:07;;;;;;;9.87;7.33;;;-0.80;99.90;;;;;;5050336;28;20233;-69
2022/04/04 03:39:35;;;;;;;10.00;7.13;;;-0.80;99.90;;;;;;5049690;28;20706;-68
2022/04/04 03:42:02;;;;;;;11.93;7.70;;;-0.80;99.90;;;;;;5050314;28;20237;-68
2022/04/04 03:44:29;;;;;;;11.30;7.20;;;-0.90;99.90;;;;;;5049780;28;20261;-68
2022/04/04 03:46:56;;;;;;;13.13;7.23;;;-0.90;99.90;;;;;;5050146;28;20690;-68
2022/04/04 03:49:23;;;;;;;11.07;7.43;;;-0.90;99.90;;;;;;5050159;28;20256;-68
2022/04/04 03:51:50;;;;;;;9.20;7.07;;;-0.90;99.90;;;;;;5050104;28;20205;-69
2022/04/04 03:54:17;;;;;;;11.50;6.97;;;-0.90;99.90;;;;;;5050127;28;20212;-69
2022/04/04 03:56:46;;;;;;;10.27;6.93;;;-0.90;99.90;;;;;;5049606;28;20562;-68
2022/04/04 03:59:13;;;;;;;11.70;7.50;;;-0.90;99.90;;;;;;5049711;28;20211;-68
2022/04/04 04:01:40;;;;;;;12.13;7.90;;;-0.90;99.90;;;;;;5049858;28;20256;-69
2022/04/04 04:04:07;;;;;;;10.93;7.47;;;-0.90;99.90;;;;;;5049746;28;20221;-68
2022/04/04 04:06:34;;;;;;;11.77;7.13;;;-0.90;99.90;;;;;;5049474;28;20262;-68
2022/04/04 04:09:01;;;;;;;10.80;7.13;;;-0.90;99.90;;;;;;5050107;28;20209;-68
2022/04/04 04:11:29;;;;;;;10.70;6.97;;;-0.90;99.90;;;;;;5049695;28;20313;-68
2022/04/04 04:13:57;;;;;;;10.60;7.60;;;-0.90;99.90;;;;;;5049683;28;20217;-69
2022/04/04 04:16:24;;;;;;;11.80;7.53;;;-0.90;99.90;;;;;;5049510;28;20253;-68
2022/04/04 04:18:51;;;;;;;11.70;7.53;;;-0.90;99.90;;;;;;5049992;28;20241;-69
2022/04/04 04:21:18;;;;;;;13.10;7.70;;;-0.80;99.90;;;;;;5049507;28;20241;-68
2022/04/04 04:23:46;;;;;;;12.27;7.33;;;-0.80;99.90;;;;;;5049503;28;20216;-69
2022/04/04 04:26:13;;;;;;;12.67;7.60;;;-0.80;99.90;;;;;;5049199;28;20360;-69
2022/04/04 04:28:41;;;;;;;11.63;7.67;;;-0.70;99.90;;;;;;5049377;28;20212;-69
2022/04/04 04:31:09;;;;;;;11.83;6.70;;;-0.70;99.90;;;;;;5049277;28;20240;-69
2022/04/04 04:33:36;;;;;;;9.50;6.87;;;-0.60;99.90;;;;;;5049237;28;20740;-69
2022/04/04 04:36:03;;;;;;;11.17;7.07;;;-0.60;99.90;;;;;;5049123;28;20205;-70
2022/04/04 04:38:31;;;;;;;13.70;7.20;;;-0.60;99.90;;;;;;5049307;28;20237;-70
2022/04/04 04:40:58;;;;;;;10.37;6.80;;;-0.50;99.90;;;;;;5049224;28;20212;-69
2022/04/04 04:43:25;;;;;;;10.63;6.67;;;-0.50;99.90;;;;;;5048858;28;20244;-68
2022/04/04 04:45:52;;;;;;;11.40;7.40;;;-0.50;99.90;;;;;;5048243;28;20734;-69
2022/04/04 04:48:21;;;;;;;11.80;6.50;;;-0.40;99.90;;;;;;5049443;28;20251;-68
2022/04/04 04:50:48;;;;;;;11.63;6.70;;;-0.30;99.90;;;;;;5049279;28;20258;-73
2022/04/04 04:53:16;;;;;;;10.27;6.43;;;-0.30;99.90;;;;;;5049118;28;20249;-70
2022/04/04 04:55:43;;;;;;;11.10;6.77;;;-0.20;99.90;;;;;;5048965;28;20213;-68
2022/04/04 04:58:10;;;;;;;10.80;7.00;;;-0.20;99.90;;;;;;5049574;28;20244;-70
2022/04/04 05:00:37;;;;;;;10.90;7.30;;;-0.10;99.90;;;;;;5049152;28;20225;-69
2022/04/04 05:05:50;;;;;;;9.40;6.83;;;0.00;99.90;;;;;;5048758;28;20286;-70
2022/04/04 05:08:18;;;;;;;10.50;6.23;;;0.00;99.90;;;;;;5048870;28;20641;-69
2022/04/04 05:10:45;;;;;;;13.37;7.10;;;0.10;99.90;;;;;;5048344;28;20241;-68
2022/04/04 05:13:13;;;;;;;9.27;6.00;;;0.10;99.90;;;;;;5048828;28;20615;-68
2022/04/04 05:15:40;;;;;;;11.10;6.70;;;0.10;99.90;;;;;;5048686;28;20731;-70
2022/04/04 05:18:07;;;;;;;9.17;5.80;;;0.10;99.90;;;;;;5048814;28;20663;-69
2022/04/04 05:20:34;;;;;;;9.70;6.13;;;0.10;99.90;;;;;;5048505;28;20300;-68
2022/04/04 05:23:03;;;;;;;9.43;6.37;;;0.20;99.90;;;;;;5048703;28;20683;-68
2022/04/04 05:25:29;;;;;;;10.57;6.63;;;0.20;99.90;;;;;;5048420;28;20316;-68
2022/04/04 05:27:57;;;;;;;9.83;6.67;;;0.30;99.90;;;;;;5049023;28;20591;-69
2022/04/04 05:30:24;;;;;;;10.53;6.47;;;0.40;99.90;;;;;;5048378;28;20221;-67
2022/04/04 05:32:51;;;;;;;9.27;6.53;;;0.40;99.90;;;;;;5048636;28;20236;-68
2022/04/04 05:35:19;;;;;;;11.00;6.50;;;0.40;99.90;;;;;;5048309;28;20213;-70
2022/04/04 05:37:47;;;;;;;13.53;7.00;;;0.50;99.90;;;;;;5048363;28;20227;-69
2022/04/04 05:40:15;;;;;;;10.53;6.50;;;0.50;99.90;;;;;;5048577;28;20292;-70
2022/04/04 05:42:42;;;;;;;11.03;6.70;;;0.50;99.90;;;;;;5048454;28;20248;-69
2022/04/04 05:45:11;;;;;;;10.70;6.50;;;0.50;99.90;;;;;;5047938;28;20272;-69
2022/04/04 05:47:38;;;;;;;9.20;6.40;;;0.50;99.90;;;;;;5048315;28;20292;-69
2022/04/04 05:50:07;;;;;;;9.33;6.03;;;0.60;99.90;;;;;;5048135;28;20245;-69
2022/04/04 05:52:36;;;;;;;9.67;6.17;;;0.70;99.90;;;;;;5048083;28;20205;-69
2022/04/04 05:55:02;;;;;;;9.73;6.10;;;0.80;99.90;;;;;;5048365;28;20198;-69
2022/04/04 05:57:34;;;;;;;12.73;6.37;;;0.80;99.90;;;;;;5051098;28;20256;-68
2022/04/04 06:00:01;;;;;;;9.07;6.27;;;0.80;99.90;;;;;;5051976;28;20312;-69
2022/04/04 06:02:28;;;;;;;9.20;6.07;;;0.90;99.90;;;;;;5051723;28;20253;-69
2022/04/04 06:04:56;;;;;;;9.00;5.93;;;0.90;99.90;;;;;;5051479;28;20245;-69
2022/04/04 06:07:23;;;;;;;9.57;6.53;;;1.00;99.90;;;;;;5051318;28;20292;-69
2022/04/04 06:09:50;;;;;;;11.50;6.53;;;1.10;99.90;;;;;;5051690;28;20257;-68
2022/04/04 06:12:17;;;;;;;12.00;6.87;;;1.10;99.90;;;;;;5051519;28;20248;-68
2022/04/04 06:14:45;;;;;;;9.40;5.97;;;1.20;99.90;;;;;;5051560;28;20205;-68
2022/04/04 06:17:12;;;;;;;13.63;6.03;;;1.20;99.90;;;;;;5051586;28;20634;-70
2022/04/04 06:19:41;;;;;;;11.77;6.60;;;1.20;99.90;;;;;;5051529;28;20291;-68
2022/04/04 06:22:08;;;;;;;11.23;6.63;;;1.30;99.90;;;;;;5051170;28;20258;-70
2022/04/04 06:24:35;;;;;;;10.87;6.47;;;1.40;99.90;;;;;;5051327;28;20248;-68
2022/04/04 06:27:03;;;;;;;9.17;6.30;;;1.40;99.90;;;;;;5051042;28;20312;-69
2022/04/04 06:29:30;;;;;;;11.87;6.27;;;1.40;99.90;;;;;;5051344;28;20635;-70
2022/04/04 06:31:59;;;;;;;10.83;6.27;;;1.50;99.90;;;;;;5051348;28;20241;-70
2022/04/04 06:34:27;;;;;;;10.53;5.93;;;1.50;99.90;;;;;;5050918;28;20205;-68
2022/04/04 06:36:54;;;;;;;9.83;5.80;;;1.60;99.90;;;;;;5051338;28;20224;-69
2022/04/04 06:39:21;;;;;;;10.73;6.13;;;1.60;99.90;;;;;;5050632;28;20246;-68
2022/04/04 06:41:48;;;;;;;10.03;5.87;;;1.70;99.90;;;;;;5050865;28;20602;-68
2022/04/04 06:44:16;;;;;;;8.77;5.53;;;1.70;99.90;;;;;;5050611;28;20249;-68
2022/04/04 06:46:43;;;;;;;10.27;6.40;;;1.80;99.90;;;;;;5051058;28;20229;-68
2022/04/04 06:49:12;;;;;;;10.73;6.40;;;1.90;99.90;;;;;;5050887;28;20202;-69
2022/04/04 06:51:39;;;;;;;8.93;5.90;;;1.90;99.90;;;;;;5050773;28;20262;-68
2022/04/04 06:54:07;;;;;;;10.60;5.73;;;2.00;99.90;;;;;;5050622;28;20256;-70
2022/04/04 06:56:35;;;;;;;8.07;5.50;;;2.00;99.90;;;;;;5051051;28;20618;-69
2022/04/04 06:59:02;;;;;;;10.17;6.20;;;2.10;99.90;;;;;;5050303;28;20211;-69
2022/04/04 07:01:31;;;;;;;10.83;6.00;;;2.10;99.90;;;;;;5050751;28;20325;-68
2022/04/04 07:03:58;;;;;;;9.07;5.93;;;2.20;99.90;;;;;;5050805;28;20201;-71
2022/04/04 07:06:27;;;;;;;9.93;6.20;;;2.20;99.90;;;;;;5050509;28;20229;-68
2022/04/04 07:08:54;;;;;;;9.30;5.77;;;2.30;99.90;;;;;;5049429;28;20236;-72
2022/04/04 07:11:21;;;;;;;10.50;5.97;;;2.30;99.90;;;;;;5050485;28;20212;-69
2022/04/04 07:13:49;;;;;;;11.27;5.97;;;2.30;99.90;;;;;;5050478;28;20225;-69
2022/04/04 07:16:17;;;;;;;8.00;5.53;;;2.30;99.90;;;;;;5050157;28;20229;-68
2022/04/04 07:18:44;;;;;;;9.30;5.60;;;2.40;99.90;;;;;;5050391;28;20240;-70
2022/04/04 07:21:11;;;;;;;8.53;5.83;;;2.50;99.90;;;;;;5050179;28;20208;-68
2022/04/04 07:23:39;;;;;;;8.37;5.53;;;2.50;99.90;;;;;;5050557;28;20721;-69
2022/04/04 07:26:06;;;;;;;9.20;5.87;;;2.60;99.90;;;;;;5050104;28;20279;-69
2022/04/04 07:28:33;;;;;;;11.80;5.67;;;2.70;99.90;;;;;;5050021;28;20258;-69
2022/04/04 07:31:03;;;;;;;9.53;5.60;;;2.80;99.90;;;;;;5050064;28;20237;-69
2022/04/04 07:33:30;;;;;;;8.33;5.57;;;2.90;99.90;;;;;;5050452;28;20194;-69
2022/04/04 07:35:57;;;;;;;7.47;5.00;;;2.90;99.90;;;;;;5050146;28;20225;-69
2022/04/04 07:38:25;;;;;;;7.60;5.07;;;3.00;99.90;;;;;;5049841;28;20241;-68
2022/04/04 07:40:53;;;;;;;6.73;4.90;;;3.00;99.90;;;;;;5050356;28;20232;-70
2022/04/04 07:43:20;;;;;;;8.87;5.03;;;3.10;99.90;;;;;;5049992;28;20251;-68
2022/04/04 07:45:47;;;;;;;14.00;5.53;;;3.20;99.90;;;;;;5050165;28;20667;-68
2022/04/04 07:48:14;;;;;;;7.80;5.00;;;3.20;99.90;;;;;;5049797;28;20292;-69
2022/04/04 07:50:43;;;;;;;7.93;5.03;;;3.30;99.90;;;;;;5050217;28;20614;-68
2022/04/04 07:53:11;;;;;;;6.43;4.83;;;3.40;99.90;;;;;;5049774;28;20205;-68
2022/04/04 07:55:38;;;;;;;8.60;4.83;;;3.50;99.90;;;;;;5049802;28;20252;-69
2022/04/04 07:58:07;;;;;;;7.80;5.00;;;3.50;99.90;;;;;;5049863;28;20212;-69
2022/04/04 08:00:34;;;;;;;8.20;4.87;;;3.60;99.90;;;;;;5049566;28;20237;-69
2022/04/04 08:03:01;;;;;;;8.07;4.70;;;3.70;99.90;;;;;;5049600;28;20637;-69
2022/04/04 08:05:28;;;;;;;8.70;4.80;;;3.70;99.90;;;;;;5049586;28;20205;-69
2022/04/04 08:07:55;;;;;;;6.17;4.40;;;3.80;99.90;;;;;;5049668;28;20687;-68
2022/04/04 08:10:22;;;;;;;7.70;4.03;;;3.80;99.90;;;;;;5049801;28;20240;-68
2022/04/04 08:12:51;;;;;;;6.70;4.50;;;3.90;99.90;;;;;;5049325;28;20245;-69
2022/04/04 08:15:20;;;;;;;6.80;4.17;;;3.90;99.90;;;;;;5049312;28;20292;-70
2022/04/04 08:17:46;;;;;;;6.30;4.57;;;4.00;99.90;;;;;;5049628;28;20605;-68
2022/04/04 08:20:14;;;;;;;8.17;4.60;;;4.00;99.90;;;;;;5049800;28;20205;-68
2022/04/04 08:22:42;;;;;;;7.53;4.57;;;4.10;99.90;;;;;;5049656;28;20731;-69
2022/04/04 08:25:10;;;;;;;5.60;4.20;;;4.20;99.90;;;;;;5049566;28;20244;-68
2022/04/04 08:27:37;;;;;;;7.33;3.80;;;4.30;99.90;;;;;;5049412;28;20271;-69
2022/04/04 08:30:05;;;;;;;5.83;3.70;;;4.30;99.90;;;;;;5049287;28;20209;-69
2022/04/04 08:32:36;;;;;;;5.47;3.70;;;4.30;99.90;;;;;;5049350;28;20205;-69
2022/04/04 08:35:03;;;;;;;6.30;3.90;;;4.20;99.90;;;;;;5049063;28;20190;-68
2022/04/04 08:37:31;;;;;;;7.70;3.97;;;4.20;99.90;;;;;;5049072;28;20546;-69
2022/04/04 08:39:58;;;;;;;6.00;4.00;;;4.20;99.90;;;;;;5048975;28;20237;-68
2022/04/04 08:42:27;;;;;;;5.73;3.83;;;4.20;99.90;;;;;;5049570;28;20244;-68
2022/04/04 08:44:55;;;;;;;5.27;3.73;;;4.20;99.80;;;;;;5048924;28;20220;-68
2022/04/04 08:47:22;;;;;;;5.17;3.33;;;4.20;99.90;;;;;;5049252;28;20315;-68
2022/04/04 08:49:53;;;;;;;6.83;3.90;;;4.20;99.90;;;;;;5049311;28;20735;-69
2022/04/04 08:52:20;;;;;;;5.50;3.50;;;4.40;99.90;;;;;;5048822;28;20213;-68
2022/04/04 08:54:48;;;;;;;6.17;3.77;;;4.50;99.20;;;;;;5048590;28;20247;-69
2022/04/04 08:57:15;;;;;;;4.53;3.00;;;4.50;98.80;;;;;;5048857;28;20208;-68
2022/04/04 08:59:43;;;;;;;6.50;3.43;;;4.60;97.10;;;;;;5048824;28;20296;-70
2022/04/04 09:02:10;;;;;;;5.20;3.20;;;4.60;97.40;;;;;;5048701;28;20478;-69
2022/04/04 09:04:37;;;;;;;5.90;3.40;;;4.70;98.50;;;;;;5049052;28;20296;-67
2022/04/04 09:07:08;;;;;;;7.53;3.30;;;4.80;99.90;;;;;;5048996;28;20257;-69
2022/04/04 09:09:40;;;;;;;5.27;3.50;;;4.90;99.40;;;;;;5049296;28;20682;-69
2022/04/04 09:12:09;;;;;;;5.17;3.13;;;5.00;98.90;;;;;;5049013;28;20202;-69
2022/04/04 09:14:39;;;;;;;4.97;3.10;;;5.10;99.20;;;;;;5048811;28;20355;-69
2022/04/04 09:17:10;;;;;;;5.20;3.17;;;5.20;98.30;;;;;;5048736;28;20221;-68
2022/04/04 09:19:37;;;;;;;4.17;3.20;;;5.30;96.60;;;;;;5048845;28;20205;-69
2022/04/04 09:22:10;;;;;;;4.73;3.37;;;5.10;96.00;;;;;;5048760;28;20241;-70
2022/04/04 09:24:49;;;;;;;4.83;3.30;;;5.10;97.10;;;;;;5048829;28;20202;-68
2022/04/04 09:27:24;;;;;;;5.30;3.23;;;5.10;96.00;;;;;;5048754;28;20244;-68
2022/04/04 09:29:53;;;;;;;4.93;2.83;;;5.20;96.80;;;;;;5048432;28;20193;-70
2022/04/04 09:32:20;;;;;;;4.77;3.20;;;5.20;97.50;;;;;;5051205;28;20240;-71
2022/04/04 09:34:57;;;;;;;6.20;3.27;;;5.30;97.10;;;;;;5052002;28;20209;-68
2022/04/04 09:37:25;;;;;;;4.00;2.90;;;5.20;96.70;;;;;;5052076;28;20281;-70
2022/04/04 09:40:01;;;;;;;5.20;3.00;;;5.00;96.20;;;;;;5051538;28;20241;-68
2022/04/04 09:42:31;;;;;;;4.83;3.07;;;4.90;96.80;;;;;;5051937;28;20253;-68
2022/04/04 09:44:59;;;;;;;5.30;2.70;;;4.90;96.30;;;;;;5051876;28;20273;-67
2022/04/04 09:47:46;;;;;;;4.70;3.27;;;4.90;95.90;;;;;;5051843;28;20309;-69
2022/04/04 09:50:32;;;;;;;5.97;3.10;;;5.00;97.70;;;;;;5052216;28;20193;-68
2022/04/04 09:53:02;;;;;;;5.57;3.10;;;5.10;97.30;;;;;;5052016;28;20211;-69
2022/04/04 09:55:30;;;;;;;7.43;3.10;;;5.30;98.30;;;;;;5052067;28;20559;-69
2022/04/04 09:57:59;;;;;;;6.47;3.30;;;5.50;98.00;;;;;;5051933;28;20229;-68
2022/04/04 10:00:26;;;;;;;5.10;3.17;;;5.50;97.80;;;;;;5051996;28;20237;-69
2022/04/04 10:02:56;;;;;;;3.83;2.73;;;5.60;97.30;;;;;;5051477;28;20292;-68
2022/04/04 10:05:25;;;;;;;4.07;2.80;;;5.60;96.40;;;;;;5052176;28;20204;-70
2022/04/04 10:07:55;;;;;;;4.37;2.80;;;5.50;96.40;;;;;;5051664;28;20226;-67
2022/04/04 10:10:26;;;;;;;4.53;2.50;;;5.60;97.10;;;;;;5051920;28;20190;-69
2022/04/04 10:12:53;;;;;;;5.30;3.00;;;5.70;96.60;;;;;;5051299;28;20193;-69
2022/04/04 10:15:21;;;;;;;4.87;3.00;;;5.90;97.30;;;;;;5051726;28;20257;-69
2022/04/04 10:17:50;;;;;;;3.70;2.83;;;5.90;96.90;;;;;;5051568;28;20280;-71
2022/04/04 10:20:17;;;;;;;4.43;2.70;;;5.90;96.70;;;;;;5052018;28;20301;-69
2022/04/04 10:22:46;;;;;;;4.93;2.90;;;5.90;97.00;;;;;;5051549;28;20233;-67
2022/04/04 10:25:14;;;;;;;4.97;3.20;;;5.90;97.70;;;;;;5051559;28;20201;-68
2022/04/04 10:27:46;;;;;;;5.50;3.07;;;6.00;97.80;;;;;;5050968;28;20312;-69
2022/04/04 10:30:15;;;;;;;5.67;2.93;;;6.10;97.80;;;;;;5051241;28;20194;-69
2022/04/04 10:32:50;;;;;;;7.73;3.10;;;6.10;97.60;;;;;;5051395;28;20216;-70
2022/04/04 10:35:21;;;;;;;5.90;3.03;;;6.10;98.10;;;;;;5051447;28;20189;-70
2022/04/04 10:37:48;;;;;;;5.90;3.20;;;6.20;98.10;;;;;;5051058;28;20190;-68
2022/04/04 10:40:23;;;;;;;3.97;2.60;;;6.20;97.40;;;;;;5051218;28;20221;-69
2022/04/04 10:43:13;;;;;;;5.60;3.20;;;6.20;97.40;;;;;;5049826;28;20686;-71
2022/04/04 10:45:55;;;;;;;5.13;3.00;;;6.20;96.70;;;;;;5051223;28;20636;-69
2022/04/04 10:48:28;;;;;;;4.17;2.93;;;6.30;96.60;;;;;;5050751;28;20206;-68
2022/04/04 10:50:55;;;;;;;4.83;3.13;;;6.30;96.10;;;;;;5051164;28;20683;-70
2022/04/04 10:53:37;;;;;;;6.53;3.27;;;6.40;95.60;;;;;;5051248;28;20288;-68
2022/04/04 10:56:06;;;;;;;6.30;3.53;;;6.40;95.90;;;;;;5051147;28;20714;-69
2022/04/04 10:58:34;;;;;;;5.87;3.13;;;6.50;95.70;;;;;;5050537;28;20240;-68
2022/04/04 11:01:06;;;;;;;6.87;3.30;;;6.50;95.60;;;;;;5051057;28;20241;-69
2022/04/04 11:03:35;;;;;;;4.33;2.83;;;6.60;95.60;;;;;;5050547;28;20238;-70
2022/04/04 11:09:11;;;;;;;5.60;3.00;;;6.60;96.80;;;;;;5050524;28;20262;-69
2022/04/04 11:11:44;;;;;;;5.40;3.53;;;6.50;97.30;;;;;;5050586;28;20189;-68
2022/04/04 11:14:13;;;;;;;5.27;3.20;;;6.50;96.30;;;;;;5051043;28;20613;-68
2022/04/04 11:17:38;;;;;;;4.97;3.37;;;6.40;96.30;;;;;;5050584;28;20263;-69
2022/04/04 11:20:14;;;;;;;5.70;3.20;;;6.40;95.30;;;;;;5050732;28;20209;-68
2022/04/04 11:22:45;;;;;;;5.83;3.03;;;6.40;95.10;;;;;;5050570;28;20272;-68
2022/04/04 11:25:16;;;;;;;6.17;3.07;;;6.60;94.50;;;;;;5050740;28;20193;-68
2022/04/04 11:27:48;;;;;;;6.40;3.73;;;6.50;94.60;;;;;;5050033;28;20673;-68
2022/04/04 11:30:19;;;;;;;4.43;3.20;;;6.60;95.20;;;;;;5050609;28;20186;-68
2022/04/04 11:32:47;;;;;;;6.30;3.50;;;6.70;95.00;;;;;;5050229;28;20238;-68
2022/04/04 11:35:18;;;;;;;6.60;3.70;;;6.80;95.00;;;;;;5050633;28;20666;-70
2022/04/04 11:37:47;;;;;;;8.97;3.80;;;6.70;93.90;;;;;;5050314;28;20186;-68
2022/04/04 11:40:15;;;;;;;6.53;3.30;;;6.70;94.00;;;;;;5049900;28;20244;-68
2022/04/04 11:42:44;;;;;;;6.33;3.63;;;6.70;93.00;;;;;;5049792;28;20237;-69
2022/04/04 11:45:17;;;;;;;6.27;3.60;;;6.70;93.30;;;;;;5050582;28;20543;-70
2022/04/04 11:47:50;;;;;;;6.40;3.37;;;6.80;93.90;;;;;;5050130;28;20213;-70
2022/04/04 11:50:17;;;;;;;5.63;3.40;;;6.80;94.20;;;;;;5049945;28;20221;-69
2022/04/04 11:52:49;;;;;;;6.70;3.60;;;6.80;93.10;;;;;;5049811;28;20240;-70
2022/04/04 11:55:18;;;;;;;5.23;3.20;;;6.90;93.30;;;;;;5049833;28;20244;-70
2022/04/04 11:57:49;;;;;;;4.77;3.40;;;6.80;92.40;;;;;;5050023;28;20245;-69
2022/04/04 12:00:22;;;;;;;6.00;3.30;;;6.80;92.20;;;;;;5049731;28;20540;-70
2022/04/04 12:02:50;;;;;;;4.87;3.57;;;6.80;93.00;;;;;;5049994;28;20745;-68
2022/04/04 12:05:22;;;;;;;6.23;3.70;;;6.80;92.70;;;;;;5050012;28;20667;-70
2022/04/04 12:07:50;;;;;;;4.87;3.70;;;6.90;92.40;;;;;;5049661;28;20213;-70
2022/04/04 12:10:25;;;;;;;6.57;3.70;;;6.80;92.90;;;;;;5049741;28;20206;-70
2022/04/04 12:12:58;;;;;;;5.67;3.50;;;6.90;93.10;;;;;;5049720;28;20189;-68
2022/04/04 12:15:31;;;;;;;5.97;3.50;;;7.00;93.60;;;;;;5049712;28;20261;-69
2022/04/04 12:17:58;;;;;;;5.80;3.50;;;7.00;93.20;;;;;;5050015;28;20659;-68
2022/04/04 12:20:26;;;;;;;4.93;3.70;;;7.10;93.50;;;;;;5049486;28;20205;-70
2022/04/04 12:25:37;;;;;;;6.47;4.00;;;7.30;93.10;;;;;;5049246;28;20189;-70
2022/04/04 12:28:05;;;;;;;8.73;4.40;;;7.30;92.60;;;;;;5049356;28;20256;-69
2022/04/04 12:30:35;;;;;;;4.40;3.57;;;7.40;92.20;;;;;;5049162;28;20248;-70
2022/04/04 12:33:13;;;;;;;7.20;3.97;;;7.30;92.40;;;;;;5049516;28;20225;-69
2022/04/04 12:35:42;;;;;;;6.83;3.87;;;7.40;92.30;;;;;;5049721;28;20225;-69
2022/04/04 12:38:09;;;;;;;5.17;3.80;;;7.20;91.70;;;;;;5049038;28;20206;-68
2022/04/04 12:40:37;;;;;;;7.27;4.17;;;7.20;91.80;;;;;;5049356;28;20708;-69
2022/04/04 12:43:08;;;;;;;7.07;3.87;;;7.10;91.70;;;;;;5049459;28;20237;-69
2022/04/04 12:45:47;;;;;;;5.57;3.47;;;7.10;92.50;;;;;;5049335;28;20321;-70
2022/04/04 12:48:14;;;;;;;5.40;3.90;;;7.20;92.60;;;;;;5048759;28;20205;-70
2022/04/04 12:50:42;;;;;;;6.77;3.60;;;7.20;92.20;;;;;;5049346;28;20635;-69
2022/04/04 12:53:12;;;;;;;6.80;4.00;;;7.30;92.00;;;;;;5049159;28;20296;-69
2022/04/04 12:55:40;;;;;;;7.50;3.97;;;7.30;92.00;;;;;;5049148;28;20706;-70
2022/04/04 12:58:19;;;;;;;12.50;3.80;;;7.20;91.90;;;;;;5049244;28;20277;-69
2022/04/04 13:00:47;;;;;;;4.63;3.33;;;7.20;91.80;;;;;;5049159;28;20549;-69
2022/04/04 13:03:25;;;;;;;5.03;3.30;;;7.20;92.10;;;;;;5048900;28;20265;-70
2022/04/04 13:05:54;;;;;;;8.53;3.97;;;7.20;92.40;;;;;;5048127;28;20236;-69
2022/04/04 13:08:23;;;;;;;4.40;3.33;;;7.20;92.00;;;;;;5048812;28;20260;-68